Time;durP1;ratioP1;P1;durP2;ratioP2;P2;SDS_P1;SDS_P2;PMS_P1;PMS_P2;Temp;Humidity;BMP_temperature;BMP_pressure;BME280_temperature;BME280_humidity;BME280_pressure;Samples;Min_cycle;Max_cycle;Signal;HPM_P1;HPM_P2
2021/11/01 00:00:39;;;;;;;;;;;;;;;9.11;100.00;99780.56;4876534;29;19935;-48
2021/11/01 00:03:05;;;;;;;;;;;;;;;9.04;100.00;99783.75;4874407;29;19967;-46
2021/11/01 00:05:33;;;;;;;;;;;;;;;9.05;100.00;99785.44;4860112;29;20447;-47
2021/11/01 00:07:59;;;;;;;;;;;;;;;9.11;100.00;99780.56;4876815;29;20000;-48
2021/11/01 00:10:26;;;;;;;;;;;;;;;9.10;100.00;99778.88;4878111;29;19927;-44
2021/11/01 00:12:54;;;;;;;;;;;;;;;9.02;100.00;99781.25;4876504;29;19929;-48
2021/11/01 00:15:20;;;;;;;;;;;;;;;8.95;100.00;99780.88;4876716;29;19931;-45
2021/11/01 00:17:47;;;;;;;;;;;;;;;8.91;100.00;99779.44;4879140;29;19932;-47
2021/11/01 00:20:14;;;;;;;;;;;;;;;8.91;100.00;99784.69;4882233;29;19976;-49
2021/11/01 00:22:40;;;;;;;;;;;;;;;8.94;100.00;99783.63;4882307;29;19927;-48
2021/11/01 00:25:08;;;;;;;;;;;;;;;8.87;100.00;99775.38;4865850;29;20426;-49
2021/11/01 00:27:34;;;;;;;;;;;;;;;8.88;100.00;99774.44;4882309;29;20372;-47
2021/11/01 00:30:02;;;;;;;;;;;;;;;8.91;100.00;99776.00;4850173;29;19928;-44
2021/11/01 00:32:28;;;;;;;;;;;;;;;8.82;100.00;99771.44;4864849;29;19932;-51
2021/11/01 00:34:55;;;;;;;;;;;;;;;8.84;100.00;99777.41;4879096;29;19928;-52
2021/11/01 00:37:22;;;;;;;;;;;;;;;8.84;100.00;99777.41;4881724;29;19928;-53
2021/11/01 00:39:49;;;;;;;;;;;;;;;8.85;100.00;99782.53;4881932;29;19932;-53
2021/11/01 00:42:15;;;;;;;;;;;;;;;8.83;100.00;99781.81;4879342;29;20407;-48
2021/11/01 00:44:42;;;;;;;;;;;;;;;8.77;100.00;99777.03;4863039;29;19928;-52
2021/11/01 00:47:11;;;;;;;;;;;;;;;8.83;100.00;99771.31;4862085;29;19959;-48
2021/11/01 00:49:38;;;;;;;;;;;;;;;8.78;100.00;99768.19;4880164;29;20014;-53
2021/11/01 00:52:05;;;;;;;;;;;;;;;8.73;100.00;99768.56;4878658;29;20396;-52
2021/11/01 00:54:32;;;;;;;;;;;;;;;8.74;100.00;99765.00;4881095;29;19928;-52
2021/11/01 00:56:59;;;;;;;;;;;;;;;8.69;100.00;99774.16;4878428;29;19931;-51
2021/11/01 00:59:25;;;;;;;;;;;;;;;8.72;100.00;99773.91;4879593;29;20350;-54
2021/11/01 01:01:52;;;;;;;;;;;;;;;8.58;100.00;99767.91;4881980;29;19927;-50
2021/11/01 01:04:19;;;;;;;;;;;;;;;8.63;100.00;99764.97;4879894;29;19931;-53
2021/11/01 01:06:46;;;;;;;;;;;;;;;8.63;100.00;99764.97;4879117;29;19938;-51
2021/11/01 01:09:13;;;;;;;;;;;;;;;8.57;100.00;99773.25;4864417;29;19928;-52
2021/11/01 01:11:40;;;;;;;;;;;;;;;8.60;100.00;99775.66;4864575;29;19932;-54
2021/11/01 01:14:07;;;;;;;;;;;;;;;8.58;100.00;99770.53;4879033;29;20391;-50
2021/11/01 01:16:41;;;;;;;;;;;;;;;8.64;100.00;99763.97;4880342;29;19932;-52
2021/11/01 01:19:15;;;;;;;;;;;;;;;8.54;100.00;99755.97;4881338;29;19928;-54
2021/11/01 01:24:27;;;;;;;;;;;;;;;8.48;100.00;99753.81;4881209;29;20388;-48
2021/11/01 01:26:54;;;;;;;;;;;;;;;8.50;100.00;99754.53;4880958;29;19928;-49
2021/11/01 01:29:21;;;;;;;;;;;;;;;8.45;100.00;99748.78;4881402;29;20005;-49
2021/11/01 01:31:48;;;;;;;;;;;;;;;8.42;100.00;99751.59;4861777;29;20368;-48
2021/11/01 01:34:15;;;;;;;;;;;;;;;8.49;100.00;99746.78;4877519;29;19928;-46
2021/11/01 01:36:41;;;;;;;;;;;;;;;8.43;100.00;99748.03;4878350;29;19935;-49
2021/11/01 01:39:08;;;;;;;;;;;;;;;8.34;100.00;99746.09;4878196;29;19928;-45
2021/11/01 01:41:35;;;;;;;;;;;;;;;8.32;100.00;99738.34;4879670;29;20326;-53
2021/11/01 01:44:02;;;;;;;;;;;;;;;8.34;100.00;99733.00;4864196;29;19980;-52
2021/11/01 01:46:29;;;;;;;;;;;;;;;8.37;100.00;99733.63;4880741;29;19935;-52
2021/11/01 01:48:56;;;;;;;;;;;;;;;8.30;100.00;99732.38;4864254;29;19932;-46
2021/11/01 01:51:27;;;;;;;;;;;;;;;8.32;100.00;99727.88;4861986;29;20384;-48
2021/11/01 01:53:54;;;;;;;;;;;;;;;8.25;100.00;99726.66;4878721;29;20337;-52
2021/11/01 01:56:23;;;;;;;;;;;;;;;8.22;100.00;99730.34;4879852;29;20344;-46
2021/11/01 01:58:52;;;;;;;;;;;;;;;8.26;100.00;99733.53;4864515;29;20443;-53
2021/11/01 02:01:19;;;;;;;;;;;;;;;8.19;100.00;99724.47;4864372;29;19935;-50
2021/11/01 02:03:49;;;;;;;;;;;;;;;8.21;100.00;99722.59;4880593;29;19928;-51
2021/11/01 02:06:31;;;;;;;;;;;;;;;8.13;100.00;99717.91;4879399;29;19950;-46
2021/11/01 02:09:04;;;;;;;;;;;;;;;8.13;100.00;99715.28;4861376;29;19931;-48
2021/11/01 02:11:35;;;;;;;;;;;;;;;8.11;100.00;99711.94;4846646;29;19932;-51
2021/11/01 02:14:01;;;;;;;;;;;;;;;8.10;100.00;99712.91;4861138;29;19932;-49
2021/11/01 02:16:29;;;;;;;;;;;;;;;8.15;100.00;99704.69;4875929;29;20042;-44
2021/11/01 02:18:56;;;;;;;;;;;;;;;8.14;100.00;99703.88;4861103;29;20308;-46
2021/11/01 02:21:25;;;;;;;;;;;;;;;8.09;100.00;99698.13;4861026;29;19928;-44
2021/11/01 02:24:05;;;;;;;;;;;;;;;8.05;100.00;99697.50;4867857;29;19928;-45
2021/11/01 02:26:36;;;;;;;;;;;;;;;8.03;100.00;99686.31;4883161;29;20316;-46
2021/11/01 02:29:03;;;;;;;;;;;;;;;8.13;100.00;99692.53;4874353;29;19936;-44
2021/11/01 02:31:29;;;;;;;;;;;;;;;8.08;100.00;99692.03;4877880;29;19960;-46
2021/11/01 02:33:56;;;;;;;;;;;;;;;8.15;100.00;99688.97;4884111;29;20457;-47
2021/11/01 02:36:23;;;;;;;;;;;;;;;8.10;100.00;99694.56;4884643;29;19928;-52
2021/11/01 02:38:54;;;;;;;;;;;;;;;8.09;100.00;99682.41;4876935;29;19935;-44
2021/11/01 02:41:23;;;;;;;;;;;;;;;8.10;100.00;99678.84;4884576;29;20022;-44
2021/11/01 02:43:57;;;;;;;;;;;;;;;8.06;100.00;99680.03;4871504;29;19931;-44
2021/11/01 02:46:24;;;;;;;;;;;;;;;8.07;100.00;99673.81;4885687;29;19931;-45
2021/11/01 02:48:51;;;;;;;;;;;;;;;8.05;100.00;99684.41;4878366;29;19942;-50
2021/11/01 02:51:18;;;;;;;;;;;;;;;8.03;100.00;99690.69;4876969;29;19938;-52
2021/11/01 02:53:45;;;;;;;;;;;;;;;8.03;100.00;99688.94;4889326;29;20373;-49
2021/11/01 02:56:13;;;;;;;;;;;;;;;8.06;100.00;99688.72;4878475;29;19934;-51
2021/11/01 02:58:40;;;;;;;;;;;;;;;8.05;100.00;99687.03;4878816;29;19934;-45
2021/11/01 03:01:10;;;;;;;;;;;;;;;8.08;100.00;99675.50;4875932;29;19939;-53
2021/11/01 03:03:38;;;;;;;;;;;;;;;8.06;100.00;99674.78;4876481;29;20360;-46
2021/11/01 03:06:05;;;;;;;;;;;;;;;8.04;100.00;99679.28;4875938;29;19971;-46
2021/11/01 03:08:32;;;;;;;;;;;;;;;8.04;100.00;99682.72;4886760;29;19935;-44
2021/11/01 03:10:59;;;;;;;;;;;;;;;8.09;100.00;99679.78;4878518;29;19927;-45
2021/11/01 03:13:28;;;;;;;;;;;;;;;8.04;100.00;99681.91;4876854;29;19927;-45
2021/11/01 03:15:56;;;;;;;;;;;;;;;7.99;100.00;99687.50;4872482;29;19927;-49
2021/11/01 03:18:24;;;;;;;;;;;;;;;7.98;100.00;99690.22;4882526;29;20342;-49
2021/11/01 03:20:52;;;;;;;;;;;;;;;7.94;100.00;99690.44;4872361;29;19935;-53
2021/11/01 03:23:20;;;;;;;;;;;;;;;7.95;100.00;99697.34;4872964;29;20007;-51
2021/11/01 03:25:55;;;;;;;;;;;;;;;7.94;100.00;99684.38;4877127;29;20369;-49
2021/11/01 03:28:22;;;;;;;;;;;;;;;7.93;100.00;99691.41;4878144;29;19928;-50
2021/11/01 03:30:49;;;;;;;;;;;;;;;7.96;100.00;99690.31;4884126;29;19935;-48
2021/11/01 03:33:15;;;;;;;;;;;;;;;7.98;100.00;99695.47;4869996;29;20356;-44
2021/11/01 03:35:42;;;;;;;;;;;;;;;7.97;100.00;99684.13;4874056;29;19975;-50
2021/11/01 03:38:10;;;;;;;;;;;;;;;7.94;100.00;99695.66;4879090;29;19927;-46
2021/11/01 03:40:39;;;;;;;;;;;;;;;7.99;100.00;99690.09;4877328;29;19984;-45
2021/11/01 03:43:07;;;;;;;;;;;;;;;7.98;100.00;99698.09;4877435;29;19928;-45
2021/11/01 03:45:33;;;;;;;;;;;;;;;7.97;100.00;99704.25;4863616;29;20031;-45
2021/11/01 03:48:03;;;;;;;;;;;;;;;7.87;100.00;99704.91;4876402;29;19928;-46
2021/11/01 03:53:01;;;;;;;;;;;;;;;7.85;100.00;99700.72;4892049;29;19928;-46
2021/11/01 03:55:31;;;;;;;;;;;;;;;7.84;100.00;99699.91;4872590;29;19975;-47
2021/11/01 03:57:58;;;;;;;;;;;;;;;7.85;100.00;99701.56;4884757;29;20360;-50
2021/11/01 04:00:27;;;;;;;;;;;;;;;7.86;100.00;99711.09;4886640;29;19935;-51
2021/11/01 04:02:54;;;;;;;;;;;;;;;7.81;100.00;99712.38;4885374;29;19931;-52
2021/11/01 04:05:21;;;;;;;;;;;;;;;7.87;100.00;99709.31;4868201;29;20367;-45
2021/11/01 04:07:48;;;;;;;;;;;;;;;7.82;100.00;99709.63;4879875;29;20420;-52
2021/11/01 04:10:14;;;;;;;;;;;;;;;7.84;100.00;99706.91;4880846;29;19932;-45
2021/11/01 04:12:41;;;;;;;;;;;;;;;7.87;100.00;99707.53;4881469;29;19961;-46
2021/11/01 04:15:11;;;;;;;;;;;;;;;7.81;100.00;99718.44;4877782;29;19932;-45
2021/11/01 04:22:46;;;;;;;;;;;;;;;7.83;100.00;99706.06;4876464;29;19928;-52
2021/11/01 04:25:13;;;;;;;;;;;;;;;7.79;100.00;99709.88;4888301;29;19927;-50
2021/11/01 04:27:39;;;;;;;;;;;;;;;7.87;100.00;99707.53;4898434;29;19971;-48
2021/11/01 04:30:07;;;;;;;;;;;;;;;7.82;100.00;99704.41;4897916;29;19935;-44
2021/11/01 04:32:38;;;;;;;;;;;;;;;7.76;100.00;99703.06;4896936;29;19956;-50
2021/11/01 04:37:37;;;;;;;;;;;;;;;7.76;100.00;99708.28;4883705;29;20269;-52
2021/11/01 04:43:01;;;;;;;;;;;;;;;7.72;100.00;99711.25;4900743;29;19976;-49
2021/11/01 04:53:47;;;;;;;;;;;;;;;7.72;100.00;99696.38;4900706;29;19934;-44
2021/11/01 04:56:17;;;;;;;;;;;;;;;7.70;100.00;99689.56;4884545;29;19928;-50
2021/11/01 04:58:46;;;;;;;;;;;;;;;7.68;100.00;99689.69;4900446;29;20440;-51
2021/11/01 05:01:14;;;;;;;;;;;;;;;7.69;100.00;99691.38;4883933;29;20606;-49
2021/11/01 05:03:43;;;;;;;;;;;;;;;7.72;100.00;99700.78;4898824;29;19927;-47
2021/11/01 05:06:10;;;;;;;;;;;;;;;7.65;100.00;99703.00;4898049;29;20514;-47
2021/11/01 05:08:45;;;;;;;;;;;;;;;7.68;100.00;99701.94;4898278;29;19927;-45
2021/11/01 05:11:38;;;;;;;;;;;;;;;7.70;100.00;99700.03;4899234;29;20506;-44
2021/11/01 05:14:00;;;;;;;;;;;;;;;7.69;100.00;99677.44;4883738;29;19931;-45
2021/11/01 05:19:26;;;;;;;;;;;;;;;7.70;100.00;99679.09;4879208;29;20010;-46
2021/11/01 05:22:02;;;;;;;;;;;;;;;7.56;100.00;99680.91;4897195;29;19975;-45
2021/11/01 05:24:42;;;;;;;;;;;;;;;7.50;100.00;99673.53;4897983;29;19927;-43
2021/11/01 05:30:02;;;;;;;;;;;;;;;7.47;100.00;99673.72;4887128;29;19927;-45
2021/11/01 05:32:29;;;;;;;;;;;;;;;7.47;100.00;99675.50;4883058;29;19927;-45
2021/11/01 05:34:56;;;;;;;;;;;;;;;7.43;100.00;99670.50;4898646;29;20395;-47
2021/11/01 05:37:22;;;;;;;;;;;;;;;7.40;100.00;99675.09;4880832;29;19932;-46
2021/11/01 05:39:50;;;;;;;;;;;;;;;7.35;100.00;99678.06;4897651;29;19932;-45
2021/11/01 05:42:16;;;;;;;;;;;;;;;7.40;100.00;99682.94;4896533;29;19936;-47
2021/11/01 05:44:43;;;;;;;;;;;;;;;7.42;100.00;99688.94;4882445;29;19983;-44
2021/11/01 05:47:11;;;;;;;;;;;;;;;7.40;100.00;99686.44;4894811;29;19938;-45
2021/11/01 05:49:39;;;;;;;;;;;;;;;7.42;100.00;99687.13;4896309;29;19999;-51
2021/11/01 05:52:11;;;;;;;;;;;;;;;7.42;100.00;99683.69;4896870;29;20371;-53
2021/11/01 05:54:37;;;;;;;;;;;;;;;7.42;100.00;99674.06;4880955;29;19927;-52
2021/11/01 05:59:45;;;;;;;;;;;;;;;7.39;100.00;99691.72;4899156;29;19983;-50
2021/11/01 06:04:56;;;;;;;;;;;;;;;7.49;100.00;99700.63;4896527;29;19937;-53
2021/11/01 06:07:32;;;;;;;;;;;;;;;7.41;100.00;99703.78;4896641;29;19935;-49
2021/11/01 06:15:29;;;;;;;;;;;;;;;7.45;100.00;99726.16;4896458;29;19995;-51
2021/11/01 06:17:56;;;;;;;;;;;;;;;7.44;100.00;99727.13;4895450;29;19938;-49
2021/11/01 06:20:23;;;;;;;;;;;;;;;7.42;100.00;99731.59;4898971;29;19928;-53
2021/11/01 06:22:50;;;;;;;;;;;;;;;7.44;100.00;99726.25;4882431;29;19935;-50
2021/11/01 06:25:18;;;;;;;;;;;;;;;7.48;100.00;99737.38;4897473;29;19931;-45
2021/11/01 06:27:46;;;;;;;;;;;;;;;7.51;100.00;99735.38;4896316;29;19938;-47
2021/11/01 06:30:27;;;;;;;;;;;;;;;7.58;100.00;99741.00;4878918;29;19931;-45
2021/11/01 06:43:30;;;;;;;;;;;;;;;7.63;100.00;99753.78;5068779;28;19925;-49
2021/11/01 06:55:16;;;;;;;;;;;;;;;7.84;100.00;99762.72;5070124;28;19936;-50
2021/11/01 07:16:17;;;;;;;;;;;;;;;8.32;100.00;99768.94;5068847;28;19929;-54
2021/11/01 07:21:42;;;;;;;;;;;;;;;8.43;100.00;99769.84;5065813;28;19929;-48
2021/11/01 08:25:58;;;;;;;;;;;;;;;10.30;92.60;99805.47;5055183;28;19932;-46
2021/11/01 09:01:23;;;;;;;;;;;;;;;11.22;87.53;99809.41;5052862;28;20566;-46
2021/11/01 09:08:18;;;;;;;;;;;;;;;10.94;88.86;99816.97;5065535;28;19931;-51
2021/11/01 09:27:07;;;;;;;;;;;;;;;11.13;85.91;99805.75;5028864;28;19941;-47
2021/11/01 09:42:54;;;;;;;;;;;;;;;11.56;84.61;99805.69;5050883;28;19929;-50
2021/11/01 09:45:22;;;;;;;;;;;;;;;11.65;84.25;99803.09;5050685;28;19951;-47
2021/11/01 09:47:49;;;;;;;;;;;;;;;11.66;81.34;99810.03;5064269;28;19925;-50
2021/11/01 09:50:17;;;;;;;;;;;;;;;11.81;81.29;99817.59;5050656;28;19974;-52
2021/11/01 09:52:44;;;;;;;;;;;;;;;12.04;79.62;99806.88;5052787;28;19925;-45
2021/11/01 10:01:08;;;;;;;;;;;;;;;12.25;80.99;99815.53;5058775;28;20081;-47
2021/11/01 10:03:36;;;;;;;;;;;;;;;12.22;78.84;99807.91;5050076;28;19974;-45
2021/11/01 10:06:03;;;;;;;;;;;;;;;12.56;75.65;99810.16;5050358;28;19935;-45
2021/11/01 10:08:31;;;;;;;;;;;;;;;12.78;74.66;99818.78;5052159;28;20408;-45
2021/11/01 10:10:58;;;;;;;;;;;;;;;13.27;74.35;99821.38;5053070;28;20384;-48
2021/11/01 10:13:26;;;;;;;;;;;;;;;13.89;73.99;99813.78;5049242;28;19924;-54
2021/11/01 10:18:43;;;;;;;;;;;;;;;13.98;70.91;99815.56;5064085;28;20266;-53
2021/11/01 10:21:10;;;;;;;;;;;;;;;14.07;71.84;99816.50;5050038;28;19932;-48
2021/11/01 10:23:44;;;;;;;;;;;;;;;14.35;70.46;99809.34;5050785;28;20308;-46
2021/11/01 10:26:15;;;;;;;;;;;;;;;14.32;69.43;99809.66;5036856;28;20448;-46
2021/11/01 10:28:48;;;;;;;;;;;;;;;14.29;69.70;99817.06;5053942;28;20328;-48
2021/11/01 10:31:20;;;;;;;;;;;;;;;14.69;68.04;99800.78;5044259;28;19936;-47
2021/11/01 10:33:48;;;;;;;;;;;;;;;14.56;66.65;99800.31;5036719;28;19967;-48
2021/11/01 10:36:25;;;;;;;;;;;;;;;14.77;67.11;99781.50;5059430;28;19975;-46
2021/11/01 10:38:53;;;;;;;;;;;;;;;15.02;65.25;99792.28;5047329;28;20024;-45
2021/11/01 10:41:41;;;;;;;;;;;;;;;14.76;65.60;99792.25;5039870;28;19925;-50
2021/11/01 10:44:37;;;;;;;;;;;;;;;14.37;66.10;99794.19;5036272;28;19933;-48
2021/11/01 10:58:45;;;;;;;;;;;;;;;14.76;66.69;99801.00;5040363;28;19947;-54
2021/11/01 11:15:06;;;;;;;;;;;;;;;15.09;63.89;99803.09;5033231;28;19948;-54
2021/11/01 11:28:45;;;;;;;;;;;;;;;15.11;64.36;99801.94;5046586;28;19933;-54
2021/11/01 11:33:56;;;;;;;;;;;;;;;14.54;64.11;99805.75;5043639;28;19960;-53
2021/11/01 11:47:36;;;;;;;;;;;;;;;14.11;66.86;99799.38;5044152;28;21512;-54
2021/11/01 11:50:09;;;;;;;;;;;;;;;14.13;66.39;99802.69;5038477;28;19979;-54
2021/11/01 11:52:36;;;;;;;;;;;;;;;14.34;66.14;99805.06;5050046;28;19925;-54
2021/11/01 11:55:07;;;;;;;;;;;;;;;14.39;65.89;99812.53;5043083;28;19924;-53
2021/11/01 11:57:35;;;;;;;;;;;;;;;14.38;64.93;99810.88;5052885;28;19932;-53
2021/11/01 12:00:03;;;;;;;;;;;;;;;14.12;65.19;99810.75;5054121;28;19929;-54
2021/11/01 12:02:40;;;;;;;;;;;;;;;13.92;65.57;99815.31;5040945;28;19986;-54
2021/11/01 12:05:34;;;;;;;;;;;;;;;14.02;65.56;99801.06;5038051;28;20317;-55
2021/11/01 12:08:04;;;;;;;;;;;;;;;13.96;66.23;99809.59;5044778;28;20484;-49
2021/11/01 12:18:48;;;;;;;;;;;;;;;13.88;65.67;99804.22;5035547;28;19929;-47
2021/11/01 12:21:15;;;;;;;;;;;;;;;13.93;66.40;99799.31;5049874;28;19971;-48
2021/11/01 12:23:44;;;;;;;;;;;;;;;13.98;65.08;99812.09;5034956;28;20395;-47
2021/11/01 12:26:11;;;;;;;;;;;;;;;14.07;65.33;99798.00;5029924;28;19980;-46
2021/11/01 12:28:38;;;;;;;;;;;;;;;14.18;65.75;99795.16;5039801;28;19925;-49
2021/11/01 12:31:08;;;;;;;;;;;;;;;14.28;66.27;99797.72;5030099;28;19925;-45
2021/11/01 12:33:35;;;;;;;;;;;;;;;14.46;65.86;99794.25;5038039;28;19925;-48
2021/11/01 12:36:06;;;;;;;;;;;;;;;14.65;63.50;99801.25;5042299;28;20387;-49
2021/11/01 12:38:41;;;;;;;;;;;;;;;14.64;63.44;99804.88;5037824;28;19929;-50
2021/11/01 12:41:51;;;;;;;;;;;;;;;14.94;63.27;99798.31;5050878;28;20418;-47
2021/11/01 12:45:09;;;;;;;;;;;;;;;14.94;63.23;99803.63;5041574;28;20350;-48
2021/11/01 12:58:42;;;;;;;;;;;;;;;14.66;62.38;99803.75;5038365;28;20011;-54
2021/11/01 13:01:10;;;;;;;;;;;;;;;14.83;62.56;99801.22;5043772;28;20297;-54
2021/11/01 13:03:37;;;;;;;;;;;;;;;14.81;62.24;99793.44;5056406;28;20370;-55
2021/11/01 13:06:08;;;;;;;;;;;;;;;14.62;62.25;99798.88;5045318;28;19932;-55
2021/11/01 13:08:47;;;;;;;;;;;;;;;14.29;61.94;99799.38;5045617;28;19933;-55
2021/11/01 13:19:25;;;;;;;;;;;;;;;14.25;62.61;99790.09;5029760;28;20024;-45
2021/11/01 13:22:29;;;;;;;;;;;;;;;13.99;63.14;99790.81;5029885;28;20031;-54
2021/11/01 13:25:09;;;;;;;;;;;;;;;13.95;63.92;99778.84;5030245;28;19929;-54
2021/11/01 13:38:33;;;;;;;;;;;;;;;13.55;66.50;99790.56;5033889;28;19925;-53
2021/11/01 13:41:00;;;;;;;;;;;;;;;13.77;66.62;99793.81;5031848;28;19932;-51
2021/11/01 13:43:28;;;;;;;;;;;;;;;13.74;64.96;99786.19;5028819;28;20423;-54
2021/11/01 13:45:57;;;;;;;;;;;;;;;13.70;67.13;99788.28;5048397;28;20451;-55
2021/11/01 13:48:30;;;;;;;;;;;;;;;13.82;65.96;99788.94;5051654;28;20384;-51
2021/11/01 13:51:08;;;;;;;;;;;;;;;13.86;65.67;99795.59;5052660;28;19936;-53
2021/11/01 13:53:49;;;;;;;;;;;;;;;13.74;65.31;99796.78;5068829;28;19924;-51
2021/11/01 13:56:29;;;;;;;;;;;;;;;13.53;65.47;99789.91;5063017;28;19925;-52
2021/11/01 13:59:06;;;;;;;;;;;;;;;13.66;66.61;99786.91;5050924;28;20277;-52
2021/11/01 14:01:44;;;;;;;;;;;;;;;13.64;65.45;99789.72;5067398;28;20383;-52
2021/11/01 14:12:35;;;;;;;;;;;;;;;13.35;67.85;99798.56;5050529;28;19987;-50
2021/11/01 14:15:47;;;;;;;;;;;;;;;13.35;67.96;99809.13;5049403;28;19936;-52
2021/11/01 14:27:22;;;;;;;;;;;;;;;13.13;68.65;99809.41;5052796;28;20003;-51
2021/11/01 14:56:45;;;;;;;;;;;;;;;12.57;71.40;99806.56;5052102;28;19952;-51
2021/11/01 15:12:49;;;;;;;;;;;;;;;12.37;69.62;99802.25;5056266;28;19932;-50
2021/11/01 15:20:07;;;;;;;;;;;;;;;12.22;71.28;99797.34;5052192;28;19971;-45
2021/11/01 15:42:13;;;;;;;;;;;;;;;11.60;73.96;99797.41;5052393;28;20384;-52
2021/11/01 16:18:10;;;;;;;;;;;;;;;10.77;79.63;99807.84;5050428;28;19925;-54
2021/11/01 16:20:33;;;;;;;;;;;;;;;10.73;79.44;99813.47;5051952;28;19929;-45
2021/11/01 16:25:41;;;;;;;;;;;;;;;10.59;80.24;99804.94;5055120;28;20253;-45
2021/11/01 16:28:08;;;;;;;;;;;;;;;10.56;80.76;99797.28;5054970;28;19932;-45
2021/11/01 16:30:37;;;;;;;;;;;;;;;10.59;81.48;99804.09;5055022;28;19924;-44
2021/11/01 16:33:06;;;;;;;;;;;;;;;10.54;80.44;99801.84;5053527;28;20441;-44
2021/11/01 16:35:38;;;;;;;;;;;;;;;10.61;80.91;99804.81;5066068;28;19925;-48
2021/11/01 16:38:13;;;;;;;;;;;;;;;10.59;80.91;99796.22;5052014;28;19932;-46
2021/11/01 16:40:42;;;;;;;;;;;;;;;10.55;81.12;99793.00;5050633;28;19936;-54
2021/11/01 16:43:17;;;;;;;;;;;;;;;10.52;81.37;99787.97;5065986;28;19948;-54
2021/11/01 16:45:47;;;;;;;;;;;;;;;10.47;81.24;99785.75;5053296;28;20392;-56
2021/11/01 16:48:14;;;;;;;;;;;;;;;10.42;81.58;99792.34;5054093;28;19928;-54
2021/11/01 16:50:41;;;;;;;;;;;;;;;10.38;81.72;99806.69;5054274;28;19924;-53
2021/11/01 16:53:08;;;;;;;;;;;;;;;10.33;82.73;99799.13;5054228;28;19924;-54
2021/11/01 16:55:38;;;;;;;;;;;;;;;10.37;82.50;99805.00;5053062;28;19925;-54
2021/11/01 16:58:14;;;;;;;;;;;;;;;10.29;82.97;99801.19;5054294;28;20401;-54
2021/11/01 17:22:23;;;;;;;;;;;;;;;9.82;96.08;99866.19;5053970;28;20395;-52
2021/11/01 17:24:55;;;;;;;;;;;;;;;9.78;96.43;99867.38;5068232;28;19936;-53
2021/11/01 18:41:33;;;;;;;;;;;;;;;9.24;100.00;99914.28;5064664;28;19925;-51
2021/11/01 18:52:13;;;;;;;;;;;;;;;9.02;100.00;99922.06;5052765;28;19947;-54
2021/11/01 18:54:41;;;;;;;;;;;;;;;9.07;100.00;99922.56;5051640;28;19924;-51
2021/11/01 18:57:08;;;;;;;;;;;;;;;8.99;100.00;99917.88;5052436;28;19925;-53
2021/11/01 18:59:36;;;;;;;;;;;;;;;9.00;100.00;99923.94;5052367;28;19974;-51
2021/11/01 19:05:05;;;;;;;;;;;;;;;9.05;100.00;99906.94;5064242;28;19956;-53
2021/11/01 19:10:44;;;;;;;;;;;;;;;8.93;100.00;99906.03;5052398;28;19947;-52
2021/11/01 20:05:33;;;;;;;;;;;;;;;8.04;100.00;99922.81;5055342;28;19935;-54
2021/11/01 20:08:15;;;;;;;;;;;;;;;7.98;100.00;99925.88;5068242;28;19936;-50
2021/11/01 20:13:42;;;;;;;;;;;;;;;7.88;100.00;99923.03;5054622;28;20442;-49
2021/11/01 21:25:50;;;;;;;;;;;;;;;7.02;100.00;99903.44;5051704;28;20380;-51
2021/11/01 21:28:17;;;;;;;;;;;;;;;6.99;100.00;99901.03;5049189;28;19979;-43
2021/11/01 21:30:44;;;;;;;;;;;;;;;6.97;100.00;99902.91;5053092;28;19924;-45
2021/11/01 21:33:15;;;;;;;;;;;;;;;6.90;100.00;99908.53;5069226;28;20008;-45
2021/11/01 21:35:46;;;;;;;;;;;;;;;6.86;100.00;99906.22;5053487;28;19925;-47
2021/11/01 21:38:13;;;;;;;;;;;;;;;6.82;100.00;99913.41;5053241;28;19936;-47
2021/11/01 21:40:49;;;;;;;;;;;;;;;6.80;100.00;99914.44;5052897;28;19926;-46
2021/11/01 21:43:17;;;;;;;;;;;;;;;6.77;100.00;99916.31;5051903;28;19928;-49
2021/11/01 21:45:44;;;;;;;;;;;;;;;6.73;100.00;99912.22;5053341;28;19925;-47
2021/11/01 21:48:11;;;;;;;;;;;;;;;6.71;100.00;99914.09;5048738;28;19932;-45
2021/11/01 21:50:37;;;;;;;;;;;;;;;6.64;100.00;99917.19;5067382;28;19925;-47
2021/11/01 21:53:06;;;;;;;;;;;;;;;6.60;100.00;99909.56;5053431;28;19925;-45
2021/11/01 21:55:32;;;;;;;;;;;;;;;6.59;100.00;99912.28;5066306;28;19932;-49
2021/11/01 21:58:05;;;;;;;;;;;;;;;6.50;100.00;99916.28;5050816;28;19931;-49
2021/11/01 22:17:44;;;;;;;;;;;;;;;6.37;100.00;99905.78;5052833;28;19970;-43
2021/11/01 22:20:20;;;;;;;;;;;;;;;6.32;100.00;99907.00;5052779;28;20338;-48
2021/11/01 22:33:13;;;;;;;;;;;;;;;6.23;100.00;99890.97;5050789;28;20280;-47
2021/11/01 22:41:08;;;;;;;;;;;;;;;6.14;100.00;99893.34;5039824;28;19937;-45
2021/11/01 22:55:34;;;;;;;;;;;;;;;6.11;100.00;99891.75;5041974;28;20019;-46
2021/11/01 22:57:25;;;;;;;;;;;;;;;6.02;100.00;99881.88;5038730;28;19929;-47
2021/11/01 22:59:52;;;;;;;;;;;;;;;5.95;100.00;99878.75;5029615;28;19925;-45
2021/11/01 23:02:18;;;;;;;;;;;;;;;5.93;100.00;99871.03;5031633;28;20430;-45
2021/11/01 23:05:05;;;;;;;;;;;;;;;5.97;100.00;99879.50;5032634;28;20286;-47
2021/11/01 23:32:18;;;;;;;;;;;;;;;5.79;100.00;99880.63;5036462;28;19940;-47
2021/11/01 23:34:45;;;;;;;;;;;;;;;5.77;100.00;99880.72;5036131;28;19952;-45
2021/11/01 23:37:12;;;;;;;;;;;;;;;5.75;100.00;99890.41;5036060;28;19925;-48
2021/11/01 23:39:38;;;;;;;;;;;;;;;5.79;100.00;99889.28;5036016;28;20289;-51
2021/11/01 23:42:05;;;;;;;;;;;;;;;5.75;100.00;99893.00;5067826;28;19925;-50
2021/11/01 23:44:32;;;;;;;;;;;;;;;5.68;100.00;99886.47;5036439;28;19926;-43
2021/11/01 23:46:58;;;;;;;;;;;;;;;5.66;100.00;99888.31;5035915;28;20338;-44
2021/11/01 23:49:25;;;;;;;;;;;;;;;5.67;100.00;99883.03;5034693;28;19932;-46
2021/11/01 23:52:08;;;;;;;;;;;;;;;5.67;100.00;99877.84;5033062;28;20293;-43
2021/11/01 23:54:42;;;;;;;;;;;;;;;5.59;100.00;99885.28;5035488;28;19925;-44
2021/11/01 23:57:10;;;;;;;;;;;;;;;5.66;100.00;99890.94;5032752;28;19928;-51
2021/11/01 23:59:37;;;;;;;;;;;;;;;5.61;100.00;99896.44;5033686;28;20028;-49
